sensor_id;sensor_type;location;lat;lon;timestamp;P1;durP1;ratioP1;P2;durP2;ratioP2
13386;SDS011;6763;48.524;9.044;2023-04-06T00:03:47;1.97;;;1.87;;
13386;SDS011;6763;48.524;9.044;2023-04-06T00:06:13;2.47;;;2.27;;
13386;SDS011;6763;48.524;9.044;2023-04-06T00:08:38;2.17;;;1.77;;
13386;SDS011;6763;48.524;9.044;2023-04-06T00:11:04;2.57;;;2.27;;
13386;SDS011;6763;48.524;9.044;2023-04-06T00:13:29;3.67;;;2.23;;
13386;SDS011;6763;48.524;9.044;2023-04-06T00:15:55;1.97;;;1.50;;
13386;SDS011;6763;48.524;9.044;2023-04-06T00:18:20;2.37;;;1.80;;
13386;SDS011;6763;48.524;9.044;2023-04-06T00:20:47;3.23;;;2.23;;
13386;SDS011;6763;48.524;9.044;2023-04-06T00:23:12;2.30;;;2.10;;
13386;SDS011;6763;48.524;9.044;2023-04-06T00:25:38;6.73;;;2.30;;
13386;SDS011;6763;48.524;9.044;2023-04-06T00:28:03;3.10;;;2.07;;
13386;SDS011;6763;48.524;9.044;2023-04-06T00:30:28;2.40;;;1.97;;
13386;SDS011;6763;48.524;9.044;2023-04-06T00:32:54;2.43;;;2.03;;
13386;SDS011;6763;48.524;9.044;2023-04-06T00:35:20;1.90;;;1.67;;
13386;SDS011;6763;48.524;9.044;2023-04-06T00:37:46;1.80;;;1.50;;
13386;SDS011;6763;48.524;9.044;2023-04-06T00:40:12;2.43;;;1.70;;
13386;SDS011;6763;48.524;9.044;2023-04-06T00:42:38;2.70;;;2.03;;
13386;SDS011;6763;48.524;9.044;2023-04-06T00:45:04;2.40;;;2.00;;
13386;SDS011;6763;48.524;9.044;2023-04-06T00:47:29;3.80;;;2.37;;
13386;SDS011;6763;48.524;9.044;2023-04-06T00:49:55;2.10;;;1.63;;
13386;SDS011;6763;48.524;9.044;2023-04-06T00:52:21;1.80;;;1.67;;
13386;SDS011;6763;48.524;9.044;2023-04-06T00:54:47;5.20;;;2.00;;
13386;SDS011;6763;48.524;9.044;2023-04-06T00:57:14;2.40;;;1.60;;
13386;SDS011;6763;48.524;9.044;2023-04-06T00:59:40;9.40;;;2.20;;
13386;SDS011;6763;48.524;9.044;2023-04-06T01:02:06;1.20;;;1.17;;
13386;SDS011;6763;48.524;9.044;2023-04-06T01:04:32;3.20;;;2.37;;
13386;SDS011;6763;48.524;9.044;2023-04-06T01:06:57;3.27;;;1.87;;
13386;SDS011;6763;48.524;9.044;2023-04-06T01:09:22;1.53;;;1.37;;
13386;SDS011;6763;48.524;9.044;2023-04-06T01:11:48;2.13;;;2.00;;
13386;SDS011;6763;48.524;9.044;2023-04-06T01:14:13;2.47;;;2.00;;
13386;SDS011;6763;48.524;9.044;2023-04-06T01:16:40;3.57;;;2.27;;
13386;SDS011;6763;48.524;9.044;2023-04-06T01:19:07;1.83;;;1.73;;
13386;SDS011;6763;48.524;9.044;2023-04-06T01:21:34;3.00;;;2.37;;
13386;SDS011;6763;48.524;9.044;2023-04-06T01:23:59;4.27;;;2.30;;
13386;SDS011;6763;48.524;9.044;2023-04-06T01:26:25;2.13;;;1.77;;
13386;SDS011;6763;48.524;9.044;2023-04-06T01:28:51;2.43;;;2.20;;
13386;SDS011;6763;48.524;9.044;2023-04-06T01:31:17;3.70;;;2.00;;
13386;SDS011;6763;48.524;9.044;2023-04-06T01:33:42;2.80;;;2.40;;
13386;SDS011;6763;48.524;9.044;2023-04-06T01:36:08;1.97;;;1.80;;
13386;SDS011;6763;48.524;9.044;2023-04-06T01:38:33;2.73;;;2.20;;
13386;SDS011;6763;48.524;9.044;2023-04-06T01:40:59;2.80;;;1.93;;
13386;SDS011;6763;48.524;9.044;2023-04-06T01:43:25;1.77;;;1.67;;
13386;SDS011;6763;48.524;9.044;2023-04-06T01:45:51;2.20;;;1.63;;
13386;SDS011;6763;48.524;9.044;2023-04-06T01:48:16;2.47;;;1.80;;
13386;SDS011;6763;48.524;9.044;2023-04-06T01:50:42;2.47;;;2.27;;
13386;SDS011;6763;48.524;9.044;2023-04-06T01:53:07;2.63;;;2.03;;
13386;SDS011;6763;48.524;9.044;2023-04-06T01:55:32;2.47;;;1.90;;
13386;SDS011;6763;48.524;9.044;2023-04-06T01:57:58;2.07;;;1.93;;
13386;SDS011;6763;48.524;9.044;2023-04-06T02:00:23;1.93;;;1.67;;
13386;SDS011;6763;48.524;9.044;2023-04-06T02:02:54;2.10;;;1.90;;
13386;SDS011;6763;48.524;9.044;2023-04-06T02:05:19;1.57;;;1.47;;
13386;SDS011;6763;48.524;9.044;2023-04-06T02:07:45;4.80;;;2.83;;
13386;SDS011;6763;48.524;9.044;2023-04-06T02:10:11;2.30;;;2.10;;
13386;SDS011;6763;48.524;9.044;2023-04-06T02:12:38;3.73;;;2.57;;
13386;SDS011;6763;48.524;9.044;2023-04-06T02:15:04;3.60;;;2.20;;
13386;SDS011;6763;48.524;9.044;2023-04-06T02:17:29;3.30;;;1.90;;
13386;SDS011;6763;48.524;9.044;2023-04-06T02:19:55;3.17;;;1.90;;
13386;SDS011;6763;48.524;9.044;2023-04-06T02:22:20;3.57;;;2.67;;
13386;SDS011;6763;48.524;9.044;2023-04-06T02:24:46;6.97;;;2.20;;
13386;SDS011;6763;48.524;9.044;2023-04-06T02:27:11;3.23;;;2.30;;
13386;SDS011;6763;48.524;9.044;2023-04-06T02:29:37;3.03;;;2.03;;
13386;SDS011;6763;48.524;9.044;2023-04-06T02:32:02;3.60;;;2.37;;
13386;SDS011;6763;48.524;9.044;2023-04-06T02:34:28;2.50;;;2.20;;
13386;SDS011;6763;48.524;9.044;2023-04-06T02:36:54;3.53;;;2.40;;
13386;SDS011;6763;48.524;9.044;2023-04-06T02:39:20;2.37;;;2.17;;
13386;SDS011;6763;48.524;9.044;2023-04-06T02:41:45;2.27;;;2.03;;
13386;SDS011;6763;48.524;9.044;2023-04-06T02:44:11;2.57;;;2.37;;
13386;SDS011;6763;48.524;9.044;2023-04-06T02:46:36;2.97;;;2.37;;
13386;SDS011;6763;48.524;9.044;2023-04-06T02:49:01;4.50;;;2.80;;
13386;SDS011;6763;48.524;9.044;2023-04-06T02:51:27;7.30;;;1.90;;
13386;SDS011;6763;48.524;9.044;2023-04-06T02:53:53;1.90;;;1.57;;
13386;SDS011;6763;48.524;9.044;2023-04-06T02:56:18;4.80;;;2.97;;
13386;SDS011;6763;48.524;9.044;2023-04-06T02:58:45;2.43;;;2.23;;
13386;SDS011;6763;48.524;9.044;2023-04-06T03:01:11;3.10;;;2.47;;
13386;SDS011;6763;48.524;9.044;2023-04-06T03:03:37;2.33;;;2.13;;
13386;SDS011;6763;48.524;9.044;2023-04-06T03:06:02;2.53;;;2.30;;
13386;SDS011;6763;48.524;9.044;2023-04-06T03:08:28;3.37;;;2.37;;
13386;SDS011;6763;48.524;9.044;2023-04-06T03:10:53;2.80;;;1.70;;
13386;SDS011;6763;48.524;9.044;2023-04-06T03:13:19;1.87;;;1.77;;
13386;SDS011;6763;48.524;9.044;2023-04-06T03:15:45;1.93;;;1.77;;
13386;SDS011;6763;48.524;9.044;2023-04-06T03:18:13;9.87;;;2.90;;
13386;SDS011;6763;48.524;9.044;2023-04-06T03:20:38;2.27;;;2.07;;
13386;SDS011;6763;48.524;9.044;2023-04-06T03:23:04;1.63;;;1.40;;
13386;SDS011;6763;48.524;9.044;2023-04-06T03:25:29;4.73;;;2.10;;
13386;SDS011;6763;48.524;9.044;2023-04-06T03:27:55;2.13;;;1.93;;
13386;SDS011;6763;48.524;9.044;2023-04-06T03:30:21;3.93;;;2.70;;
13386;SDS011;6763;48.524;9.044;2023-04-06T03:32:46;3.67;;;3.33;;
13386;SDS011;6763;48.524;9.044;2023-04-06T03:35:11;2.93;;;2.33;;
13386;SDS011;6763;48.524;9.044;2023-04-06T03:37:37;3.00;;;2.70;;
13386;SDS011;6763;48.524;9.044;2023-04-06T03:40:02;3.97;;;2.47;;
13386;SDS011;6763;48.524;9.044;2023-04-06T03:42:29;3.67;;;2.17;;
13386;SDS011;6763;48.524;9.044;2023-04-06T03:44:54;4.23;;;1.70;;
13386;SDS011;6763;48.524;9.044;2023-04-06T03:47:20;2.97;;;1.93;;
13386;SDS011;6763;48.524;9.044;2023-04-06T03:49:45;4.17;;;2.33;;
13386;SDS011;6763;48.524;9.044;2023-04-06T03:52:11;2.50;;;2.03;;
13386;SDS011;6763;48.524;9.044;2023-04-06T03:54:36;2.30;;;2.20;;
13386;SDS011;6763;48.524;9.044;2023-04-06T03:57:01;2.80;;;2.50;;
13386;SDS011;6763;48.524;9.044;2023-04-06T03:59:27;1.67;;;1.57;;
13386;SDS011;6763;48.524;9.044;2023-04-06T04:01:52;2.50;;;2.17;;
13386;SDS011;6763;48.524;9.044;2023-04-06T04:04:18;1.73;;;1.63;;
13386;SDS011;6763;48.524;9.044;2023-04-06T04:06:43;2.60;;;2.40;;
13386;SDS011;6763;48.524;9.044;2023-04-06T04:09:09;2.53;;;2.33;;
13386;SDS011;6763;48.524;9.044;2023-04-06T04:11:34;2.63;;;2.43;;
13386;SDS011;6763;48.524;9.044;2023-04-06T04:13:59;2.63;;;2.43;;
13386;SDS011;6763;48.524;9.044;2023-04-06T04:16:25;5.77;;;3.03;;
13386;SDS011;6763;48.524;9.044;2023-04-06T04:18:50;4.17;;;3.20;;
13386;SDS011;6763;48.524;9.044;2023-04-06T04:21:16;2.30;;;2.13;;
13386;SDS011;6763;48.524;9.044;2023-04-06T04:23:41;3.47;;;2.63;;
13386;SDS011;6763;48.524;9.044;2023-04-06T04:26:06;3.67;;;1.90;;
13386;SDS011;6763;48.524;9.044;2023-04-06T04:28:32;2.67;;;2.20;;
13386;SDS011;6763;48.524;9.044;2023-04-06T04:30:57;1.60;;;1.50;;
13386;SDS011;6763;48.524;9.044;2023-04-06T04:33:22;6.00;;;1.83;;
13386;SDS011;6763;48.524;9.044;2023-04-06T04:35:48;2.83;;;1.73;;
13386;SDS011;6763;48.524;9.044;2023-04-06T04:38:13;3.20;;;2.57;;
13386;SDS011;6763;48.524;9.044;2023-04-06T04:40:38;2.83;;;2.30;;
13386;SDS011;6763;48.524;9.044;2023-04-06T04:43:04;2.77;;;2.43;;
13386;SDS011;6763;48.524;9.044;2023-04-06T04:45:29;3.80;;;3.50;;
13386;SDS011;6763;48.524;9.044;2023-04-06T04:47:55;2.73;;;2.53;;
13386;SDS011;6763;48.524;9.044;2023-04-06T04:50:20;2.73;;;2.27;;
13386;SDS011;6763;48.524;9.044;2023-04-06T04:52:45;2.27;;;2.07;;
13386;SDS011;6763;48.524;9.044;2023-04-06T04:55:11;3.83;;;3.53;;
13386;SDS011;6763;48.524;9.044;2023-04-06T04:57:37;9.60;;;2.53;;
13386;SDS011;6763;48.524;9.044;2023-04-06T05:00:02;3.93;;;2.37;;
13386;SDS011;6763;48.524;9.044;2023-04-06T05:02:28;5.40;;;2.87;;
13386;SDS011;6763;48.524;9.044;2023-04-06T05:04:53;4.13;;;2.83;;
13386;SDS011;6763;48.524;9.044;2023-04-06T05:07:18;3.73;;;2.03;;
13386;SDS011;6763;48.524;9.044;2023-04-06T05:09:45;6.00;;;2.63;;
13386;SDS011;6763;48.524;9.044;2023-04-06T05:12:11;2.23;;;2.00;;
13386;SDS011;6763;48.524;9.044;2023-04-06T05:14:36;2.50;;;2.23;;
13386;SDS011;6763;48.524;9.044;2023-04-06T05:17:02;2.30;;;2.20;;
13386;SDS011;6763;48.524;9.044;2023-04-06T05:19:27;2.40;;;2.20;;
13386;SDS011;6763;48.524;9.044;2023-04-06T05:21:52;2.07;;;1.93;;
13386;SDS011;6763;48.524;9.044;2023-04-06T05:24:18;2.30;;;1.83;;
13386;SDS011;6763;48.524;9.044;2023-04-06T05:26:43;2.67;;;2.47;;
13386;SDS011;6763;48.524;9.044;2023-04-06T05:29:10;3.20;;;2.60;;
13386;SDS011;6763;48.524;9.044;2023-04-06T05:31:35;2.33;;;1.93;;
13386;SDS011;6763;48.524;9.044;2023-04-06T05:34:01;3.23;;;2.30;;
13386;SDS011;6763;48.524;9.044;2023-04-06T05:36:26;1.97;;;1.77;;
13386;SDS011;6763;48.524;9.044;2023-04-06T05:38:52;3.10;;;2.77;;
13386;SDS011;6763;48.524;9.044;2023-04-06T05:41:17;2.07;;;1.83;;
13386;SDS011;6763;48.524;9.044;2023-04-06T05:43:43;2.13;;;2.03;;
13386;SDS011;6763;48.524;9.044;2023-04-06T05:46:09;2.33;;;2.13;;
13386;SDS011;6763;48.524;9.044;2023-04-06T05:48:35;3.03;;;2.63;;
13386;SDS011;6763;48.524;9.044;2023-04-06T05:51:00;4.03;;;1.87;;
13386;SDS011;6763;48.524;9.044;2023-04-06T05:53:27;4.03;;;2.67;;
13386;SDS011;6763;48.524;9.044;2023-04-06T05:55:53;3.33;;;2.57;;
13386;SDS011;6763;48.524;9.044;2023-04-06T05:58:19;2.47;;;2.27;;
13386;SDS011;6763;48.524;9.044;2023-04-06T06:00:44;3.07;;;2.47;;
13386;SDS011;6763;48.524;9.044;2023-04-06T06:03:11;2.97;;;2.67;;
13386;SDS011;6763;48.524;9.044;2023-04-06T06:05:37;5.83;;;2.20;;
13386;SDS011;6763;48.524;9.044;2023-04-06T06:08:02;2.80;;;2.27;;
13386;SDS011;6763;48.524;9.044;2023-04-06T06:10:27;4.87;;;3.20;;
13386;SDS011;6763;48.524;9.044;2023-04-06T06:12:53;2.27;;;1.90;;
13386;SDS011;6763;48.524;9.044;2023-04-06T06:15:18;3.57;;;3.10;;
13386;SDS011;6763;48.524;9.044;2023-04-06T06:17:44;5.77;;;3.00;;
13386;SDS011;6763;48.524;9.044;2023-04-06T06:20:09;1.93;;;1.73;;
13386;SDS011;6763;48.524;9.044;2023-04-06T06:22:35;1.87;;;1.77;;
13386;SDS011;6763;48.524;9.044;2023-04-06T06:25:00;3.13;;;2.27;;
13386;SDS011;6763;48.524;9.044;2023-04-06T06:27:26;3.50;;;2.53;;
13386;SDS011;6763;48.524;9.044;2023-04-06T06:29:51;3.30;;;2.23;;
13386;SDS011;6763;48.524;9.044;2023-04-06T06:32:17;3.50;;;2.73;;
13386;SDS011;6763;48.524;9.044;2023-04-06T06:34:42;2.60;;;2.40;;
13386;SDS011;6763;48.524;9.044;2023-04-06T06:37:08;6.07;;;3.13;;
13386;SDS011;6763;48.524;9.044;2023-04-06T06:39:33;3.63;;;3.20;;
13386;SDS011;6763;48.524;9.044;2023-04-06T06:41:59;5.73;;;3.30;;
13386;SDS011;6763;48.524;9.044;2023-04-06T06:44:27;3.83;;;2.73;;
13386;SDS011;6763;48.524;9.044;2023-04-06T06:46:53;2.25;;;2.08;;
13386;SDS011;6763;48.524;9.044;2023-04-06T06:49:18;3.30;;;2.83;;
13386;SDS011;6763;48.524;9.044;2023-04-06T06:51:44;4.65;;;2.90;;
13386;SDS011;6763;48.524;9.044;2023-04-06T06:54:11;6.20;;;2.97;;
13386;SDS011;6763;48.524;9.044;2023-04-06T06:56:37;2.53;;;2.33;;
13386;SDS011;6763;48.524;9.044;2023-04-06T06:59:03;4.03;;;3.10;;
13386;SDS011;6763;48.524;9.044;2023-04-06T07:01:31;3.28;;;2.40;;
13386;SDS011;6763;48.524;9.044;2023-04-06T07:03:58;3.08;;;2.72;;
13386;SDS011;6763;48.524;9.044;2023-04-06T07:06:23;7.25;;;3.55;;
13386;SDS011;6763;48.524;9.044;2023-04-06T07:08:49;4.93;;;3.50;;
13386;SDS011;6763;48.524;9.044;2023-04-06T07:11:14;3.03;;;2.70;;
13386;SDS011;6763;48.524;9.044;2023-04-06T07:13:39;4.35;;;3.33;;
13386;SDS011;6763;48.524;9.044;2023-04-06T07:16:05;3.88;;;2.65;;
13386;SDS011;6763;48.524;9.044;2023-04-06T07:18:30;3.90;;;3.00;;
13386;SDS011;6763;48.524;9.044;2023-04-06T07:20:56;3.78;;;2.70;;
13386;SDS011;6763;48.524;9.044;2023-04-06T07:23:21;5.07;;;3.22;;
13386;SDS011;6763;48.524;9.044;2023-04-06T07:25:47;3.72;;;2.55;;
13386;SDS011;6763;48.524;9.044;2023-04-06T07:28:12;7.68;;;3.20;;
13386;SDS011;6763;48.524;9.044;2023-04-06T07:30:37;4.18;;;3.25;;
13386;SDS011;6763;48.524;9.044;2023-04-06T07:33:03;7.78;;;3.38;;
13386;SDS011;6763;48.524;9.044;2023-04-06T07:35:30;4.82;;;3.00;;
13386;SDS011;6763;48.524;9.044;2023-04-06T07:37:56;2.83;;;2.45;;
13386;SDS011;6763;48.524;9.044;2023-04-06T07:40:22;3.92;;;2.80;;
13386;SDS011;6763;48.524;9.044;2023-04-06T07:42:47;3.63;;;3.10;;
13386;SDS011;6763;48.524;9.044;2023-04-06T07:45:13;4.80;;;3.28;;
13386;SDS011;6763;48.524;9.044;2023-04-06T07:47:38;4.93;;;3.33;;
13386;SDS011;6763;48.524;9.044;2023-04-06T07:50:04;5.30;;;3.72;;
13386;SDS011;6763;48.524;9.044;2023-04-06T07:52:30;6.15;;;2.63;;
13386;SDS011;6763;48.524;9.044;2023-04-06T07:54:59;5.70;;;3.15;;
13386;SDS011;6763;48.524;9.044;2023-04-06T07:57:25;5.13;;;3.30;;
13386;SDS011;6763;48.524;9.044;2023-04-06T07:59:50;6.10;;;3.40;;
13386;SDS011;6763;48.524;9.044;2023-04-06T08:02:15;3.85;;;2.88;;
13386;SDS011;6763;48.524;9.044;2023-04-06T08:04:41;8.82;;;3.72;;
13386;SDS011;6763;48.524;9.044;2023-04-06T08:07:07;4.15;;;3.00;;
13386;SDS011;6763;48.524;9.044;2023-04-06T08:09:32;4.68;;;2.75;;
13386;SDS011;6763;48.524;9.044;2023-04-06T08:11:58;4.00;;;3.05;;
13386;SDS011;6763;48.524;9.044;2023-04-06T08:14:23;4.13;;;2.67;;
13386;SDS011;6763;48.524;9.044;2023-04-06T08:16:49;3.65;;;2.88;;
13386;SDS011;6763;48.524;9.044;2023-04-06T08:19:14;6.32;;;3.50;;
13386;SDS011;6763;48.524;9.044;2023-04-06T08:21:42;2.40;;;2.20;;
13386;SDS011;6763;48.524;9.044;2023-04-06T08:24:08;3.22;;;2.80;;
13386;SDS011;6763;48.524;9.044;2023-04-06T08:26:33;6.07;;;2.97;;
13386;SDS011;6763;48.524;9.044;2023-04-06T08:28:59;3.80;;;2.67;;
13386;SDS011;6763;48.524;9.044;2023-04-06T08:31:24;6.15;;;3.10;;
13386;SDS011;6763;48.524;9.044;2023-04-06T08:33:51;4.65;;;3.33;;
13386;SDS011;6763;48.524;9.044;2023-04-06T08:36:16;4.57;;;2.72;;
13386;SDS011;6763;48.524;9.044;2023-04-06T08:38:45;2.53;;;2.33;;
13386;SDS011;6763;48.524;9.044;2023-04-06T08:41:11;5.97;;;2.78;;
13386;SDS011;6763;48.524;9.044;2023-04-06T08:43:47;4.75;;;2.47;;
13386;SDS011;6763;48.524;9.044;2023-04-06T08:46:15;3.30;;;3.00;;
13386;SDS011;6763;48.524;9.044;2023-04-06T08:48:41;5.95;;;3.58;;
13386;SDS011;6763;48.524;9.044;2023-04-06T08:51:08;3.30;;;2.30;;
13386;SDS011;6763;48.524;9.044;2023-04-06T08:53:35;4.40;;;2.65;;
13386;SDS011;6763;48.524;9.044;2023-04-06T08:56:01;3.55;;;2.90;;
13386;SDS011;6763;48.524;9.044;2023-04-06T08:58:28;5.32;;;3.55;;
13386;SDS011;6763;48.524;9.044;2023-04-06T09:00:57;3.95;;;2.83;;
13386;SDS011;6763;48.524;9.044;2023-04-06T09:03:23;3.03;;;2.70;;
13386;SDS011;6763;48.524;9.044;2023-04-06T09:05:51;2.83;;;2.50;;
13386;SDS011;6763;48.524;9.044;2023-04-06T09:08:16;3.33;;;2.40;;
13386;SDS011;6763;48.524;9.044;2023-04-06T09:10:41;3.13;;;2.83;;
13386;SDS011;6763;48.524;9.044;2023-04-06T09:13:07;4.05;;;2.30;;
13386;SDS011;6763;48.524;9.044;2023-04-06T09:15:34;5.20;;;3.22;;
13386;SDS011;6763;48.524;9.044;2023-04-06T09:18:00;3.78;;;2.63;;
13386;SDS011;6763;48.524;9.044;2023-04-06T09:20:26;4.07;;;2.55;;
13386;SDS011;6763;48.524;9.044;2023-04-06T09:22:53;5.22;;;2.50;;
13386;SDS011;6763;48.524;9.044;2023-04-06T09:25:20;4.10;;;2.95;;
13386;SDS011;6763;48.524;9.044;2023-04-06T09:27:48;7.82;;;2.88;;
13386;SDS011;6763;48.524;9.044;2023-04-06T09:30:23;3.67;;;2.47;;
13386;SDS011;6763;48.524;9.044;2023-04-06T09:32:50;5.35;;;2.95;;
13386;SDS011;6763;48.524;9.044;2023-04-06T09:35:17;3.03;;;2.67;;
13386;SDS011;6763;48.524;9.044;2023-04-06T09:37:45;3.90;;;2.83;;
13386;SDS011;6763;48.524;9.044;2023-04-06T09:40:12;4.03;;;3.20;;
13386;SDS011;6763;48.524;9.044;2023-04-06T09:42:42;3.20;;;2.72;;
13386;SDS011;6763;48.524;9.044;2023-04-06T09:45:07;3.08;;;2.70;;
13386;SDS011;6763;48.524;9.044;2023-04-06T09:47:33;3.30;;;2.65;;
13386;SDS011;6763;48.524;9.044;2023-04-06T09:50:01;3.30;;;2.45;;
13386;SDS011;6763;48.524;9.044;2023-04-06T09:52:37;4.07;;;2.88;;
13386;SDS011;6763;48.524;9.044;2023-04-06T09:55:06;5.75;;;3.35;;
13386;SDS011;6763;48.524;9.044;2023-04-06T09:57:48;4.05;;;2.85;;
13386;SDS011;6763;48.524;9.044;2023-04-06T10:00:18;2.95;;;2.45;;
13386;SDS011;6763;48.524;9.044;2023-04-06T10:08:11;5.47;;;2.13;;
13386;SDS011;6763;48.524;9.044;2023-04-06T10:10:38;2.05;;;1.85;;
13386;SDS011;6763;48.524;9.044;2023-04-06T10:13:04;2.22;;;1.88;;
13386;SDS011;6763;48.524;9.044;2023-04-06T10:15:31;3.13;;;1.70;;
13386;SDS011;6763;48.524;9.044;2023-04-06T10:17:57;2.17;;;1.63;;
13386;SDS011;6763;48.524;9.044;2023-04-06T10:20:24;2.00;;;1.73;;
13386;SDS011;6763;48.524;9.044;2023-04-06T10:22:54;1.70;;;1.60;;
13386;SDS011;6763;48.524;9.044;2023-04-06T10:25:31;2.72;;;2.00;;
13386;SDS011;6763;48.524;9.044;2023-04-06T10:28:07;2.70;;;2.20;;
13386;SDS011;6763;48.524;9.044;2023-04-06T10:30:34;2.00;;;1.80;;
13386;SDS011;6763;48.524;9.044;2023-04-06T10:33:16;3.58;;;2.28;;
13386;SDS011;6763;48.524;9.044;2023-04-06T10:35:44;2.50;;;1.83;;
13386;SDS011;6763;48.524;9.044;2023-04-06T10:38:10;2.80;;;2.08;;
13386;SDS011;6763;48.524;9.044;2023-04-06T10:40:38;3.80;;;2.45;;
13386;SDS011;6763;48.524;9.044;2023-04-06T10:45:43;3.00;;;2.15;;
13386;SDS011;6763;48.524;9.044;2023-04-06T10:48:13;3.35;;;2.25;;
13386;SDS011;6763;48.524;9.044;2023-04-06T10:50:40;4.50;;;2.50;;
13386;SDS011;6763;48.524;9.044;2023-04-06T10:53:08;3.38;;;2.28;;
13386;SDS011;6763;48.524;9.044;2023-04-06T10:55:33;2.72;;;2.17;;
13386;SDS011;6763;48.524;9.044;2023-04-06T10:57:59;2.85;;;2.42;;
13386;SDS011;6763;48.524;9.044;2023-04-06T11:00:25;7.10;;;2.00;;
13386;SDS011;6763;48.524;9.044;2023-04-06T11:02:51;2.13;;;1.90;;
13386;SDS011;6763;48.524;9.044;2023-04-06T11:05:17;2.70;;;1.90;;
13386;SDS011;6763;48.524;9.044;2023-04-06T11:07:43;2.13;;;1.85;;
13386;SDS011;6763;48.524;9.044;2023-04-06T11:10:09;2.80;;;1.70;;
13386;SDS011;6763;48.524;9.044;2023-04-06T11:12:34;1.70;;;1.60;;
13386;SDS011;6763;48.524;9.044;2023-04-06T11:15:01;2.08;;;1.50;;
13386;SDS011;6763;48.524;9.044;2023-04-06T11:17:29;1.88;;;1.27;;
13386;SDS011;6763;48.524;9.044;2023-04-06T11:19:56;1.90;;;1.33;;
13386;SDS011;6763;48.524;9.044;2023-04-06T11:22:22;1.33;;;1.20;;
13386;SDS011;6763;48.524;9.044;2023-04-06T11:24:50;2.53;;;1.48;;
13386;SDS011;6763;48.524;9.044;2023-04-06T11:27:16;1.40;;;1.20;;
13386;SDS011;6763;48.524;9.044;2023-04-06T11:29:42;2.33;;;1.42;;
13386;SDS011;6763;48.524;9.044;2023-04-06T11:32:08;2.25;;;1.70;;
13386;SDS011;6763;48.524;9.044;2023-04-06T11:34:38;2.35;;;1.60;;
13386;SDS011;6763;48.524;9.044;2023-04-06T11:37:09;1.70;;;1.35;;
13386;SDS011;6763;48.524;9.044;2023-04-06T11:42:23;2.15;;;1.85;;
13386;SDS011;6763;48.524;9.044;2023-04-06T11:44:59;2.13;;;1.75;;
13386;SDS011;6763;48.524;9.044;2023-04-06T11:52:37;2.30;;;1.45;;
13386;SDS011;6763;48.524;9.044;2023-04-06T11:55:11;4.35;;;1.67;;
13386;SDS011;6763;48.524;9.044;2023-04-06T11:57:41;5.40;;;1.60;;
13386;SDS011;6763;48.524;9.044;2023-04-06T12:00:08;2.45;;;1.65;;
13386;SDS011;6763;48.524;9.044;2023-04-06T12:02:37;1.88;;;1.30;;
13386;SDS011;6763;48.524;9.044;2023-04-06T12:05:04;3.47;;;1.80;;
13386;SDS011;6763;48.524;9.044;2023-04-06T12:07:31;1.98;;;1.77;;
13386;SDS011;6763;48.524;9.044;2023-04-06T12:09:57;2.00;;;1.80;;
13386;SDS011;6763;48.524;9.044;2023-04-06T12:12:23;2.00;;;1.65;;
13386;SDS011;6763;48.524;9.044;2023-04-06T12:14:49;4.80;;;2.20;;
13386;SDS011;6763;48.524;9.044;2023-04-06T12:17:14;1.90;;;1.70;;
13386;SDS011;6763;48.524;9.044;2023-04-06T12:19:40;2.25;;;1.50;;
13386;SDS011;6763;48.524;9.044;2023-04-06T12:22:05;3.05;;;1.70;;
13386;SDS011;6763;48.524;9.044;2023-04-06T12:24:31;1.50;;;1.40;;
13386;SDS011;6763;48.524;9.044;2023-04-06T12:26:56;2.53;;;1.65;;
13386;SDS011;6763;48.524;9.044;2023-04-06T12:29:22;3.08;;;1.40;;
13386;SDS011;6763;48.524;9.044;2023-04-06T12:31:48;1.80;;;1.52;;
13386;SDS011;6763;48.524;9.044;2023-04-06T12:34:14;1.52;;;1.33;;
13386;SDS011;6763;48.524;9.044;2023-04-06T12:36:39;2.05;;;1.48;;
13386;SDS011;6763;48.524;9.044;2023-04-06T12:39:05;2.80;;;1.67;;
13386;SDS011;6763;48.524;9.044;2023-04-06T12:41:30;2.10;;;1.75;;
13386;SDS011;6763;48.524;9.044;2023-04-06T12:43:56;2.03;;;1.60;;
13386;SDS011;6763;48.524;9.044;2023-04-06T12:46:21;1.95;;;1.35;;
13386;SDS011;6763;48.524;9.044;2023-04-06T12:48:47;1.83;;;1.50;;
13386;SDS011;6763;48.524;9.044;2023-04-06T12:51:13;3.22;;;1.40;;
13386;SDS011;6763;48.524;9.044;2023-04-06T12:53:38;2.28;;;1.50;;
13386;SDS011;6763;48.524;9.044;2023-04-06T12:56:10;1.75;;;1.40;;
13386;SDS011;6763;48.524;9.044;2023-04-06T12:58:37;1.90;;;1.38;;
13386;SDS011;6763;48.524;9.044;2023-04-06T13:01:05;1.60;;;1.30;;
13386;SDS011;6763;48.524;9.044;2023-04-06T13:03:31;1.42;;;1.23;;
13386;SDS011;6763;48.524;9.044;2023-04-06T13:05:58;1.55;;;1.38;;
13386;SDS011;6763;48.524;9.044;2023-04-06T13:08:25;1.55;;;1.33;;
13386;SDS011;6763;48.524;9.044;2023-04-06T13:10:51;1.42;;;1.20;;
13386;SDS011;6763;48.524;9.044;2023-04-06T13:13:17;1.35;;;1.17;;
13386;SDS011;6763;48.524;9.044;2023-04-06T13:15:48;2.33;;;1.17;;
13386;SDS011;6763;48.524;9.044;2023-04-06T13:18:14;1.95;;;1.50;;
13386;SDS011;6763;48.524;9.044;2023-04-06T13:20:40;2.97;;;1.80;;
13386;SDS011;6763;48.524;9.044;2023-04-06T13:23:07;1.88;;;1.58;;
13386;SDS011;6763;48.524;9.044;2023-04-06T13:25:32;3.47;;;1.55;;
13386;SDS011;6763;48.524;9.044;2023-04-06T13:27:58;1.83;;;1.58;;
13386;SDS011;6763;48.524;9.044;2023-04-06T13:30:23;2.22;;;1.45;;
13386;SDS011;6763;48.524;9.044;2023-04-06T13:32:50;2.35;;;1.58;;
13386;SDS011;6763;48.524;9.044;2023-04-06T13:35:16;2.42;;;2.10;;
13386;SDS011;6763;48.524;9.044;2023-04-06T13:37:42;2.55;;;2.10;;
13386;SDS011;6763;48.524;9.044;2023-04-06T13:40:08;1.63;;;1.42;;
13386;SDS011;6763;48.524;9.044;2023-04-06T13:42:34;1.90;;;1.20;;
13386;SDS011;6763;48.524;9.044;2023-04-06T13:45:06;1.67;;;1.55;;
13386;SDS011;6763;48.524;9.044;2023-04-06T13:47:32;2.65;;;1.67;;
13386;SDS011;6763;48.524;9.044;2023-04-06T13:49:57;2.10;;;1.60;;
13386;SDS011;6763;48.524;9.044;2023-04-06T13:52:23;2.22;;;1.50;;
13386;SDS011;6763;48.524;9.044;2023-04-06T13:54:49;2.35;;;1.58;;
13386;SDS011;6763;48.524;9.044;2023-04-06T13:57:15;3.83;;;1.70;;
13386;SDS011;6763;48.524;9.044;2023-04-06T13:59:40;2.90;;;1.38;;
13386;SDS011;6763;48.524;9.044;2023-04-06T14:02:07;2.03;;;1.73;;
13386;SDS011;6763;48.524;9.044;2023-04-06T14:04:33;2.38;;;1.63;;
13386;SDS011;6763;48.524;9.044;2023-04-06T14:06:59;2.20;;;1.77;;
13386;SDS011;6763;48.524;9.044;2023-04-06T14:09:26;1.42;;;1.33;;
13386;SDS011;6763;48.524;9.044;2023-04-06T14:11:52;1.45;;;1.35;;
13386;SDS011;6763;48.524;9.044;2023-04-06T14:14:17;1.58;;;1.30;;
13386;SDS011;6763;48.524;9.044;2023-04-06T14:16:43;1.67;;;1.30;;
13386;SDS011;6763;48.524;9.044;2023-04-06T14:19:09;2.05;;;1.50;;
13386;SDS011;6763;48.524;9.044;2023-04-06T14:21:36;4.15;;;1.52;;
13386;SDS011;6763;48.524;9.044;2023-04-06T14:24:02;2.00;;;1.60;;
13386;SDS011;6763;48.524;9.044;2023-04-06T14:26:28;2.05;;;1.75;;
13386;SDS011;6763;48.524;9.044;2023-04-06T14:28:53;2.58;;;1.90;;
13386;SDS011;6763;48.524;9.044;2023-04-06T14:31:19;2.75;;;1.33;;
13386;SDS011;6763;48.524;9.044;2023-04-06T14:33:44;2.10;;;1.50;;
13386;SDS011;6763;48.524;9.044;2023-04-06T14:36:10;1.48;;;1.30;;
13386;SDS011;6763;48.524;9.044;2023-04-06T14:38:36;1.92;;;1.73;;
13386;SDS011;6763;48.524;9.044;2023-04-06T14:41:01;1.95;;;1.58;;
13386;SDS011;6763;48.524;9.044;2023-04-06T14:43:27;1.90;;;1.55;;
13386;SDS011;6763;48.524;9.044;2023-04-06T14:45:52;2.08;;;1.83;;
13386;SDS011;6763;48.524;9.044;2023-04-06T14:48:18;2.60;;;1.40;;
13386;SDS011;6763;48.524;9.044;2023-04-06T14:50:56;3.90;;;1.50;;
13386;SDS011;6763;48.524;9.044;2023-04-06T14:53:25;3.42;;;1.90;;
13386;SDS011;6763;48.524;9.044;2023-04-06T14:55:51;1.77;;;1.33;;
13386;SDS011;6763;48.524;9.044;2023-04-06T14:58:17;1.55;;;1.45;;
13386;SDS011;6763;48.524;9.044;2023-04-06T15:00:43;2.00;;;1.40;;
13386;SDS011;6763;48.524;9.044;2023-04-06T15:03:09;2.03;;;1.27;;
13386;SDS011;6763;48.524;9.044;2023-04-06T15:05:34;1.98;;;1.40;;
13386;SDS011;6763;48.524;9.044;2023-04-06T15:08:00;2.78;;;1.60;;
13386;SDS011;6763;48.524;9.044;2023-04-06T15:10:26;2.28;;;1.52;;
13386;SDS011;6763;48.524;9.044;2023-04-06T15:12:51;1.92;;;1.55;;